createdAt,value
2022-11-04T00:04:00.552Z,9.63
2022-11-04T00:09:03.181Z,9.05
2022-11-04T00:14:06.693Z,9.10
2022-11-04T00:19:08.197Z,8.90
2022-11-04T00:24:30.299Z,10.10
2022-11-04T00:29:31.808Z,14.00
2022-11-04T00:34:33.379Z,10.77
2022-11-04T00:39:34.912Z,9.95
2022-11-04T00:44:36.445Z,11.95
2022-11-04T00:49:37.961Z,9.52
2022-11-04T00:54:39.518Z,9.75
2022-11-04T00:59:41.436Z,10.35
2022-11-04T01:04:42.898Z,11.50
2022-11-04T01:09:44.434Z,11.38
2022-11-04T01:14:49.730Z,13.05
2022-11-04T01:19:51.417Z,14.98
2022-11-04T01:24:53.160Z,14.05
2022-11-04T01:29:54.663Z,13.70
2022-11-04T01:34:56.144Z,16.30
2022-11-04T01:39:57.637Z,15.30
2022-11-04T01:45:00.856Z,14.10
2022-11-04T01:50:07.155Z,15.23
2022-11-04T01:55:14.563Z,14.85
2022-11-04T02:00:16.923Z,15.27
2022-11-04T02:05:18.857Z,14.32
2022-11-04T02:10:22.845Z,15.30
2022-11-04T02:15:33.290Z,15.77
2022-11-04T02:20:52.900Z,16.02
2022-11-04T02:26:22.145Z,17.85
2022-11-04T02:31:40.332Z,19.42
2022-11-04T02:36:50.804Z,17.48
2022-11-04T02:42:15.166Z,21.42
2022-11-04T02:47:21.140Z,17.23
2022-11-04T02:52:28.914Z,18.48
2022-11-04T02:57:33.116Z,18.38
2022-11-04T03:02:36.959Z,15.98
2022-11-04T03:07:41.103Z,17.40
2022-11-04T03:12:48.453Z,16.55
2022-11-04T03:18:00.515Z,17.55
2022-11-04T03:23:02.002Z,16.67
2022-11-04T03:28:09.705Z,17.88
2022-11-04T03:33:41.051Z,16.58
2022-11-04T03:38:42.599Z,19.85
2022-11-04T03:43:44.084Z,15.07
2022-11-04T03:48:47.333Z,16.80
2022-11-04T03:53:48.984Z,18.60
2022-11-04T03:59:04.477Z,19.45
2022-11-04T04:04:15.600Z,16.80
2022-11-04T04:09:32.998Z,16.65
2022-11-04T04:14:41.437Z,17.27
2022-11-04T04:19:46.387Z,18.45
2022-11-04T04:25:07.993Z,17.17
2022-11-04T04:30:12.704Z,17.33
2022-11-04T04:35:33.060Z,17.00
2022-11-04T04:40:53.629Z,20.60
2022-11-04T04:45:55.765Z,17.00
2022-11-04T04:50:57.499Z,19.83
2022-11-04T04:55:58.980Z,19.08
2022-11-04T05:01:00.477Z,18.65
2022-11-04T05:06:02.039Z,20.90
2022-11-04T05:11:03.778Z,19.88
2022-11-04T05:16:08.401Z,19.60
2022-11-04T05:21:12.662Z,26.27
2022-11-04T05:26:14.978Z,23.65
2022-11-04T05:31:16.581Z,23.17
2022-11-04T05:36:18.126Z,29.83
2022-11-04T05:41:25.858Z,27.00
2022-11-04T05:46:28.417Z,31.67
2022-11-04T05:51:30.059Z,29.40
2022-11-04T05:56:31.556Z,31.13
2022-11-04T06:01:37.980Z,29.60
2022-11-04T06:06:39.744Z,29.20
2022-11-04T06:11:41.304Z,31.80
2022-11-04T06:16:43.868Z,29.73
2022-11-04T06:21:45.393Z,30.48
2022-11-04T06:26:46.921Z,30.30
2022-11-04T06:31:48.580Z,30.52
2022-11-04T06:36:50.675Z,28.75
2022-11-04T06:41:52.544Z,30.60
2022-11-04T06:46:55.233Z,32.13
2022-11-04T06:51:56.815Z,31.92
2022-11-04T06:56:58.346Z,28.35
2022-11-04T07:02:00.059Z,30.40
2022-11-04T07:07:01.654Z,29.70
2022-11-04T07:12:03.226Z,25.75
2022-11-04T07:17:04.798Z,23.98
2022-11-04T07:22:06.423Z,18.10
2022-11-04T07:27:07.956Z,15.30
2022-11-04T07:32:09.513Z,13.88
2022-11-04T07:37:11.037Z,12.88
2022-11-04T07:42:12.553Z,12.13
2022-11-04T07:47:14.853Z,10.25
2022-11-04T07:52:16.577Z,10.43
2022-11-04T07:57:18.048Z,10.70
2022-11-04T08:02:25.107Z,11.57
2022-11-04T08:07:28.155Z,8.82
2022-11-04T08:12:29.725Z,9.07
2022-11-04T08:17:31.327Z,8.25
2022-11-04T08:22:34.359Z,8.43
2022-11-04T08:27:35.853Z,9.20
2022-11-04T08:32:37.704Z,8.90
2022-11-04T08:37:39.399Z,9.52
2022-11-04T08:42:40.910Z,8.02
2022-11-04T08:47:42.444Z,7.82
2022-11-04T08:52:43.969Z,6.70
2022-11-04T08:57:45.484Z,7.05
2022-11-04T09:02:47.118Z,7.72
2022-11-04T09:07:48.597Z,5.10
2022-11-04T09:12:50.104Z,5.10
2022-11-04T09:17:51.601Z,5.03
2022-11-04T09:22:54.248Z,5.72
2022-11-04T09:27:55.814Z,6.57
2022-11-04T09:32:58.211Z,4.90
2022-11-04T09:38:01.197Z,6.97
2022-11-04T09:43:22.987Z,5.45
2022-11-04T09:48:38.621Z,7.57
2022-11-04T09:53:51.489Z,5.88
2022-11-04T09:58:52.995Z,5.90
2022-11-04T10:04:09.211Z,7.07
2022-11-04T10:09:42.845Z,6.20
2022-11-04T10:15:02.698Z,7.07
2022-11-04T10:20:43.823Z,7.63
2022-11-04T10:25:50.150Z,7.85
2022-11-04T10:30:52.406Z,6.03
2022-11-04T10:35:58.323Z,6.50
2022-11-04T10:41:05.965Z,5.38
2022-11-04T10:46:30.475Z,7.18
2022-11-04T10:51:33.638Z,5.70
2022-11-04T10:56:45.410Z,5.20
2022-11-04T11:01:53.543Z,5.40
2022-11-04T11:06:59.678Z,4.85
2022-11-04T11:12:49.474Z,6.05
2022-11-04T11:17:43.679Z,6.20
2022-11-04T11:22:46.363Z,5.32
2022-11-04T11:27:53.815Z,4.93
2022-11-04T11:33:04.055Z,4.90
2022-11-04T11:38:07.133Z,3.72
2022-11-04T11:43:28.794Z,3.40
2022-11-04T11:48:31.585Z,4.13
2022-11-04T11:53:38.089Z,3.75
2022-11-04T12:09:47.436Z,5.47
2022-11-04T12:14:59.167Z,4.10
2022-11-04T12:20:24.828Z,5.10
2022-11-04T12:25:44.265Z,3.35
2022-11-04T12:31:01.276Z,4.00
2022-11-04T12:36:29.284Z,4.70
2022-11-04T12:47:31.938Z,3.58
2022-11-04T12:52:48.857Z,3.00
2022-11-04T12:58:06.465Z,4.25
2022-11-04T13:03:15.876Z,4.10
2022-11-04T13:08:29.547Z,3.97
2022-11-04T13:13:36.434Z,4.70
2022-11-04T13:18:40.057Z,4.32
2022-11-04T13:23:58.046Z,4.30
2022-11-04T13:29:08.732Z,4.82
2022-11-04T13:34:24.960Z,5.25
2022-11-04T13:39:35.094Z,5.00
2022-11-04T13:44:43.223Z,5.38
2022-11-04T13:49:53.719Z,5.47
2022-11-04T13:55:00.367Z,7.57
2022-11-04T14:00:10.854Z,5.38
2022-11-04T14:05:27.480Z,7.45
2022-11-04T14:10:50.889Z,5.25
2022-11-04T14:16:03.041Z,5.82
2022-11-04T14:21:16.255Z,6.00
2022-11-04T14:26:27.681Z,6.13
2022-11-04T14:31:40.202Z,7.50
2022-11-04T14:36:41.923Z,7.90
2022-11-04T14:41:54.207Z,5.38
2022-11-04T14:47:01.413Z,5.15
2022-11-04T14:52:03.517Z,6.15
2022-11-04T14:57:14.002Z,7.50
2022-11-04T15:02:23.788Z,9.95
2022-11-04T15:07:31.383Z,10.90
2022-11-04T15:12:50.794Z,7.70
2022-11-04T15:17:52.849Z,4.55
2022-11-04T15:22:55.639Z,5.03
2022-11-04T15:27:57.163Z,3.47
2022-11-04T15:33:01.273Z,3.53
2022-11-04T15:38:03.901Z,4.63
2022-11-04T15:43:06.352Z,4.03
2022-11-04T15:48:30.780Z,5.35
2022-11-04T15:53:47.869Z,5.30
2022-11-04T15:58:49.752Z,5.75
2022-11-04T16:03:56.529Z,6.30
2022-11-04T16:09:08.202Z,5.93
2022-11-04T16:14:22.744Z,5.95
2022-11-04T16:19:28.825Z,6.72
2022-11-04T16:24:32.526Z,6.78
2022-11-04T16:29:36.703Z,6.97
2022-11-04T16:34:38.895Z,7.10
2022-11-04T16:39:41.057Z,5.93
2022-11-04T16:44:50.606Z,6.35
2022-11-04T16:49:52.085Z,5.40
2022-11-04T16:54:56.989Z,6.45
2022-11-04T16:59:58.532Z,6.72
2022-11-04T17:05:00.060Z,6.97
2022-11-04T17:10:01.616Z,6.70
2022-11-04T17:15:03.626Z,6.22
2022-11-04T17:20:06.540Z,8.00
2022-11-04T17:25:28.174Z,6.45
2022-11-04T17:30:29.747Z,6.00
2022-11-04T17:35:31.437Z,6.20
2022-11-04T17:40:33.117Z,5.88
2022-11-04T17:45:34.684Z,6.32
2022-11-04T17:50:39.428Z,5.50
2022-11-04T17:55:41.072Z,6.00
2022-11-04T18:00:42.545Z,5.70
2022-11-04T18:05:44.010Z,7.15
2022-11-04T18:10:45.520Z,6.75
2022-11-04T18:15:47.017Z,6.65
2022-11-04T18:20:49.179Z,5.85
2022-11-04T18:25:50.972Z,7.38
2022-11-04T18:30:52.519Z,7.30
2022-11-04T18:35:54.006Z,7.57
2022-11-04T18:40:55.937Z,6.13
2022-11-04T18:45:57.487Z,7.55
2022-11-04T18:51:00.136Z,6.38
2022-11-04T18:56:06.361Z,7.10
2022-11-04T19:01:07.867Z,6.78
2022-11-04T19:06:11.947Z,7.63
2022-11-04T19:11:33.947Z,8.00
2022-11-04T19:16:35.869Z,7.40
2022-11-04T19:21:37.423Z,7.72
2022-11-04T19:26:40.894Z,7.63
2022-11-04T19:31:42.437Z,9.77
2022-11-04T19:36:43.932Z,8.45
2022-11-04T19:42:04.162Z,8.38
2022-11-04T19:47:05.831Z,9.20
2022-11-04T19:52:08.701Z,8.52
2022-11-04T19:57:10.187Z,8.27
2022-11-04T20:02:15.106Z,8.10
2022-11-04T20:07:17.120Z,9.52
2022-11-04T20:12:37.064Z,12.15
2022-11-04T20:17:38.627Z,9.15
2022-11-04T20:22:40.121Z,9.77
2022-11-04T20:27:41.654Z,8.73
2022-11-04T20:32:43.276Z,8.30
2022-11-04T20:37:44.799Z,8.82
2022-11-04T20:42:48.960Z,7.25
2022-11-04T20:47:50.527Z,8.98
2022-11-04T20:52:52.228Z,8.48
2022-11-04T20:57:53.851Z,8.68
2022-11-04T21:02:55.357Z,10.40
2022-11-04T21:07:56.862Z,7.45
2022-11-04T21:12:58.413Z,7.20
2022-11-04T21:17:59.920Z,6.97
2022-11-04T21:23:01.432Z,8.07
2022-11-04T21:28:02.974Z,8.98
2022-11-04T21:33:04.850Z,8.50
2022-11-04T21:38:08.962Z,11.85
2022-11-04T21:43:11.378Z,7.18
2022-11-04T21:48:13.044Z,9.48
2022-11-04T21:53:14.712Z,7.90
2022-11-04T21:58:16.220Z,8.50
2022-11-04T22:03:17.689Z,7.45
2022-11-04T22:08:19.869Z,7.63
2022-11-04T22:13:22.619Z,8.13
2022-11-04T22:18:33.419Z,10.57
2022-11-04T22:23:35.544Z,8.15
2022-11-04T22:28:37.070Z,8.77
2022-11-04T22:33:39.008Z,7.95
2022-11-04T22:38:41.727Z,9.35
2022-11-04T22:43:43.302Z,9.05
2022-11-04T22:48:44.998Z,8.68
2022-11-04T22:53:51.295Z,8.73
2022-11-04T22:58:55.689Z,8.77
2022-11-04T23:03:57.597Z,9.60
2022-11-04T23:09:00.658Z,8.45
2022-11-04T23:14:21.343Z,8.95
2022-11-04T23:19:25.756Z,8.93
2022-11-04T23:24:49.605Z,9.32
2022-11-04T23:30:09.705Z,8.48
2022-11-04T23:35:29.932Z,8.25
2022-11-04T23:40:32.187Z,8.70
2022-11-04T23:45:52.383Z,8.00
2022-11-04T23:51:16.486Z,8.80
2022-11-04T23:56:36.639Z,8.60
